Time;durP1;ratioP1;P1;durP2;ratioP2;P2;SDS_P1;SDS_P2;PMS_P1;PMS_P2;Temp;Humidity;BMP_temperature;BMP_pressure;BME280_temperature;BME280_humidity;BME280_pressure;Samples;Min_cycle;Max_cycle;Signal;HPM_P1;HPM_P2
2022/10/10 00:08:07;;;;;;;21.20;13.80;;;;;;;5.27;78.98;99601.11;422604;1296;97864;-39
2022/10/10 00:18:14;;;;;;;19.00;12.20;;;;;;;5.53;79.01;99595.60;422701;1291;106456;-40
2022/10/10 00:28:22;;;;;;;21.80;12.00;;;;;;;5.67;79.06;99589.83;422555;1296;97481;-40
2022/10/10 00:38:30;;;;;;;27.90;13.90;;;;;;;5.48;78.77;99573.40;422709;1295;109933;-41
2022/10/10 00:48:38;;;;;;;22.50;13.90;;;;;;;5.42;79.13;99570.74;422810;1285;107394;-40
2022/10/10 00:58:50;;;;;;;21.30;12.90;;;;;;;5.16;78.81;99562.50;423032;1296;97982;-40
2022/10/10 01:08:58;;;;;;;21.90;13.30;;;;;;;5.09;78.99;99544.74;423423;1296;109848;-40
2022/10/10 01:19:04;;;;;;;20.10;13.20;;;;;;;5.12;79.27;99529.91;424033;1263;107625;-40
2022/10/10 01:29:14;;;;;;;23.70;12.60;;;;;;;5.04;78.98;99518.46;422966;1289;97874;-40
2022/10/10 01:39:28;;;;;;;17.60;10.80;;;;;;;5.14;79.71;99511.52;422894;1292;106843;-40
2022/10/10 01:49:35;;;;;;;19.70;11.30;;;;;;;5.14;79.66;99501.41;422797;1285;97950;-40
2022/10/10 01:59:41;;;;;;;16.50;9.50;;;;;;;5.21;79.91;99488.41;422820;1289;109719;-39
2022/10/10 02:09:52;;;;;;;13.00;7.90;;;;;;;5.29;79.96;99482.35;422961;1293;107263;-39
2022/10/10 02:20:00;;;;;;;12.20;7.90;;;;;;;5.45;80.38;99476.00;422805;1291;97909;-39
2022/10/10 02:30:09;;;;;;;14.00;6.20;;;;;;;5.64;80.43;99458.03;422723;1292;108607;-41
2022/10/10 02:50:24;;;;;;;10.60;5.40;;;;;;;5.93;80.38;99442.61;422967;1292;111608;-41
2022/10/10 03:00:32;;;;;;;7.40;5.20;;;;;;;5.97;80.45;99439.00;422560;1293;107121;-41
2022/10/10 03:30:51;;;;;;;9.10;4.70;;;;;;;6.02;80.53;99405.38;422728;1291;97870;-40
2022/10/10 03:40:58;;;;;;;11.60;5.30;;;;;;;6.09;80.63;99403.45;423001;1287;109649;-41
2022/10/10 03:51:05;;;;;;;10.00;6.60;;;;;;;6.21;80.61;99402.58;422536;1289;107643;-41
2022/10/10 04:01:12;;;;;;;9.30;6.40;;;;;;;6.19;80.39;99396.29;422769;1283;97163;-40
2022/10/10 04:11:20;;;;;;;16.70;9.20;;;;;;;6.09;80.48;99389.10;422889;1285;108315;-41
2022/10/10 04:21:27;;;;;;;14.00;9.30;;;;;;;6.07;80.72;99387.70;423051;1285;97484;-41
2022/10/10 04:31:34;;;;;;;10.40;7.80;;;;;;;6.06;80.68;99376.27;422632;1278;97478;-40
2022/10/10 04:41:41;;;;;;;9.90;6.20;;;;;;;6.07;80.71;99381.12;422913;1292;108618;-41
2022/10/10 04:51:48;;;;;;;22.40;10.40;;;;;;;6.12;80.56;99376.34;422591;1294;97861;-40
2022/10/10 05:01:55;;;;;;;13.80;8.00;;;;;;;6.14;80.65;99366.63;422962;1292;111666;-40
2022/10/10 05:12:07;;;;;;;12.80;8.30;;;;;;;6.15;80.61;99364.23;422884;1292;107729;-38
2022/10/10 05:22:14;;;;;;;10.20;8.70;;;;;;;6.18;80.76;99360.75;422692;1293;97869;-39
2022/10/10 05:32:22;;;;;;;11.60;6.90;;;;;;;6.23;80.85;99359.77;422851;1292;109778;-40
2022/10/10 05:42:29;;;;;;;11.40;6.80;;;;;;;6.33;80.69;99352.64;422598;1292;109457;-41
2022/10/10 05:52:37;;;;;;;11.20;5.90;;;;;;;6.53;80.70;99353.71;422609;1293;97570;-40
2022/10/10 06:02:44;;;;;;;11.00;4.80;;;;;;;6.80;80.61;99352.33;422676;1291;110267;-44
2022/10/10 06:12:51;;;;;;;14.10;6.30;;;;;;;7.75;81.37;99356.61;422674;1284;108512;-40
2022/10/10 06:22:59;;;;;;;14.10;7.10;;;;;;;8.97;80.48;99361.41;422718;1292;97876;-41
2022/10/10 06:43:15;;;;;;;10.80;5.10;;;;;;;9.25;78.48;99361.52;422736;1293;107980;-41
2022/10/10 06:53:22;;;;;;;11.80;6.20;;;;;;;9.40;78.19;99365.89;423021;1286;97488;-39
2022/10/10 07:03:31;;;;;;;19.90;10.60;;;;;;;9.72;78.05;99371.59;422959;1286;109680;-39
2022/10/10 07:13:39;;;;;;;9.50;4.70;;;;;;;10.33;77.55;99371.07;422818;1284;107703;-41
2022/10/10 07:23:46;;;;;;;10.20;4.00;;;;;;;10.69;76.40;99355.77;422652;1295;97892;-39
2022/10/10 07:33:53;;;;;;;7.80;4.60;;;;;;;11.30;75.87;99357.25;422822;1292;97777;-39
2022/10/10 07:44:02;;;;;;;7.00;3.20;;;;;;;12.12;73.81;99352.02;422597;1294;109627;-40
2022/10/10 07:54:11;;;;;;;6.50;3.70;;;;;;;13.11;72.34;99344.06;423764;1285;107863;-39
2022/10/10 08:04:19;;;;;;;10.30;3.20;;;;;;;13.61;70.56;99337.19;423618;1294;98491;-40
2022/10/10 08:14:26;;;;;;;6.60;3.20;;;;;;;13.80;68.83;99334.79;422508;1283;110654;-41
2022/10/10 08:24:33;;;;;;;3.30;2.30;;;;;;;14.01;66.09;99334.42;422810;1294;108906;-41
2022/10/10 08:34:41;;;;;;;6.60;2.40;;;;;;;14.20;64.31;99326.80;422980;1287;97776;-41
2022/10/10 08:44:50;;;;;;;4.80;3.10;;;;;;;14.43;63.88;99323.17;422891;1287;98652;-41
2022/10/10 08:54:57;;;;;;;3.10;2.00;;;;;;;14.82;63.15;99323.96;422910;1295;110640;-39
2022/10/10 09:05:05;;;;;;;7.80;3.00;;;;;;;15.18;62.69;99317.17;423110;1294;107900;-40
2022/10/10 09:15:18;;;;;;;4.80;2.60;;;;;;;15.14;60.01;99308.45;422774;1286;97910;-41
2022/10/10 09:25:31;;;;;;;5.40;3.20;;;;;;;15.14;59.51;99304.95;422764;1291;97873;-40
2022/10/10 09:35:42;;;;;;;8.60;3.20;;;;;;;15.23;58.99;99293.59;422441;1294;109364;-41
2022/10/10 09:45:55;;;;;;;8.00;3.30;;;;;;;15.57;58.79;99281.09;422795;1278;107241;-41
2022/10/10 09:56:04;;;;;;;3.40;2.40;;;;;;;15.67;57.36;99271.11;422648;1294;98296;-41
2022/10/10 10:06:15;;;;;;;12.50;5.60;;;;;;;15.79;56.89;99262.82;422790;1292;109660;-39
2022/10/10 10:16:29;;;;;;;6.00;3.20;;;;;;;16.00;57.50;99257.44;422553;1293;108484;-39
2022/10/10 10:26:42;;;;;;;5.30;3.10;;;;;;;16.21;57.31;99247.46;422891;1295;97883;-40
2022/10/10 10:36:58;;;;;;;6.50;3.90;;;;;;;16.47;57.33;99241.80;422904;1288;109533;-39
2022/10/10 10:57:21;;;;;;;6.40;3.40;;;;;;;16.94;57.00;99208.45;422645;1278;98421;-40
2022/10/10 11:07:47;;;;;;;3.00;2.70;;;;;;;17.05;57.03;99199.71;422715;1295;97877;-39
2022/10/10 11:17:56;;;;;;;4.80;3.60;;;;;;;17.14;55.39;99187.27;422789;1291;110020;-41
2022/10/10 11:28:11;;;;;;;4.50;3.60;;;;;;;17.22;56.04;99176.98;422696;1295;108510;-40
2022/10/10 11:38:22;;;;;;;4.20;3.70;;;;;;;17.35;55.71;99160.59;422806;1290;97873;-40
2022/10/10 11:48:28;;;;;;;4.40;3.00;;;;;;;17.41;55.68;99144.67;422775;1293;109322;-40
2022/10/10 11:58:36;;;;;;;6.10;3.50;;;;;;;17.36;54.50;99133.77;422758;1291;108138;-40
2022/10/10 12:08:46;;;;;;;5.60;3.20;;;;;;;17.33;54.07;99120.88;422588;1295;97860;-41
2022/10/10 12:18:54;;;;;;;7.20;3.40;;;;;;;17.40;54.48;99108.21;422803;1293;109348;-40
2022/10/10 12:29:02;;;;;;;8.00;3.50;;;;;;;17.42;53.64;99092.29;422976;1295;108027;-41
2022/10/10 12:39:48;;;;;;;7.90;3.40;;;;;;;17.34;53.43;99085.32;422478;1291;100134;-41
2022/10/10 12:49:57;;;;;;;9.20;4.00;;;;;;;17.25;53.51;99077.10;423247;1279;110962;-40
2022/10/10 13:00:13;;;;;;;7.70;4.70;;;;;;;17.21;53.64;99062.81;422834;1285;107830;-40
2022/10/10 13:10:19;;;;;;;4.20;3.80;;;;;;;17.26;53.58;99047.55;422847;1292;97606;-40
2022/10/10 13:30:33;;;;;;;9.50;4.10;;;;;;;17.14;53.30;99025.98;422540;1293;110600;-41
2022/10/10 13:40:42;;;;;;;7.30;4.30;;;;;;;17.21;53.05;99014.02;422782;1292;106976;-41
2022/10/10 13:50:55;;;;;;;8.00;3.90;;;;;;;17.22;53.09;98998.57;422504;1289;97985;-40
2022/10/10 14:01:02;;;;;;;7.20;4.90;;;;;;;17.18;52.45;98989.21;422795;1292;109389;-41
2022/10/10 14:11:19;;;;;;;12.70;5.30;;;;;;;17.11;53.22;98991.19;422820;1291;108450;-41
2022/10/10 14:21:27;;;;;;;6.00;4.60;;;;;;;17.02;53.86;98987.25;422784;1289;97870;-41
2022/10/10 14:31:34;;;;;;;11.70;5.20;;;;;;;16.76;53.69;98977.38;422687;1292;97485;-40
2022/10/10 14:41:41;;;;;;;9.40;4.80;;;;;;;16.42;54.43;98973.94;422961;1293;110699;-43
2022/10/10 14:51:49;;;;;;;11.60;5.00;;;;;;;16.16;54.62;98969.79;423345;1289;108577;-40
2022/10/10 15:01:55;;;;;;;7.10;3.90;;;;;;;15.79;54.99;98960.79;422543;1291;107726;-41
2022/10/10 15:12:03;;;;;;;10.30;4.60;;;;;;;15.40;55.52;98949.81;422767;1293;97890;-40
2022/10/10 15:22:09;;;;;;;8.40;4.30;;;;;;;15.11;55.85;98950.98;422899;1286;110191;-39
2022/10/10 15:32:16;;;;;;;13.60;6.60;;;;;;;14.84;56.09;98940.89;422926;1298;107746;-41
2022/10/10 15:42:23;;;;;;;14.80;8.60;;;;;;;14.56;56.47;98936.31;422912;1292;97593;-40
2022/10/10 15:52:31;;;;;;;13.10;6.60;;;;;;;14.26;56.74;98939.14;422933;1286;109960;-40
2022/10/10 16:02:39;;;;;;;14.60;8.10;;;;;;;13.95;57.06;98935.67;422972;1285;107650;-40
2022/10/10 16:12:46;;;;;;;12.20;6.80;;;;;;;13.66;57.45;98928.91;422924;1293;97477;-40
2022/10/10 16:22:53;;;;;;;14.00;7.80;;;;;;;13.37;57.79;98924.09;422875;1292;111656;-40
2022/10/10 16:33:00;;;;;;;13.40;7.50;;;;;;;13.16;58.19;98919.25;422975;1285;108497;-39
2022/10/10 16:43:08;;;;;;;12.50;7.10;;;;;;;13.00;58.48;98914.69;422915;1285;97857;-39
2022/10/10 16:53:15;;;;;;;16.20;8.70;;;;;;;12.79;58.82;98912.73;422783;1284;110167;-40
2022/10/10 17:03:23;;;;;;;15.40;9.30;;;;;;;12.64;59.23;98913.02;422637;1292;109225;-41
2022/10/10 17:13:32;;;;;;;23.50;12.80;;;;;;;12.50;59.70;98913.33;423321;1292;97279;-40
2022/10/10 17:23:40;;;;;;;22.40;13.80;;;;;;;12.32;60.02;98910.89;423067;1292;108736;-40
2022/10/10 17:33:48;;;;;;;27.70;14.50;;;;;;;12.11;60.53;98915.07;422931;1291;109369;-41
2022/10/10 17:44:01;;;;;;;29.20;16.20;;;;;;;11.91;61.00;98914.95;422885;1285;97915;-41
2022/10/10 18:04:15;;;;;;;33.00;19.00;;;;;;;11.49;62.05;98906.45;423100;1274;97905;-40
2022/10/10 18:14:21;;;;;;;41.90;22.60;;;;;;;11.26;62.52;98909.19;422980;1292;110307;-41
2022/10/10 18:24:29;;;;;;;54.60;28.50;;;;;;;10.98;63.06;98906.52;423109;1285;108707;-40
2022/10/10 18:34:35;;;;;;;40.80;23.10;;;;;;;10.77;63.59;98905.33;422728;1287;97873;-40
2022/10/10 18:44:42;;;;;;;43.60;23.00;;;;;;;10.71;64.17;98905.07;422817;1292;109521;-40
2022/10/10 18:54:50;;;;;;;54.30;25.70;;;;;;;10.59;64.57;98892.54;422795;1284;97860;-40
2022/10/10 19:04:56;;;;;;;51.90;25.90;;;;;;;10.49;64.99;98887.66;422915;1284;110856;-40
2022/10/10 19:15:04;;;;;;;47.40;26.40;;;;;;;10.23;65.37;98873.31;422737;1292;108607;-42
2022/10/10 19:25:12;;;;;;;46.10;24.10;;;;;;;10.07;65.78;98879.02;422894;1292;97235;-41
2022/10/10 19:35:19;;;;;;;41.90;22.70;;;;;;;10.06;66.06;98871.82;422937;1289;110618;-41
2022/10/10 19:45:26;;;;;;;47.60;23.10;;;;;;;10.07;66.39;98868.77;423020;1286;108661;-41
2022/10/10 19:55:34;;;;;;;52.50;26.10;;;;;;;10.03;66.76;98878.60;423259;1286;97629;-40
2022/10/10 20:05:41;;;;;;;55.30;27.60;;;;;;;9.87;66.90;98875.84;422950;1284;110318;-41
2022/10/10 20:15:49;;;;;;;47.20;25.30;;;;;;;9.73;67.33;98870.63;422824;1292;108183;-41
2022/10/10 20:25:56;;;;;;;36.70;21.50;;;;;;;9.65;67.49;98864.55;422502;1286;97911;-40
2022/10/10 20:46:06;;;;;;;45.90;23.20;;;;;;;9.55;67.87;98861.90;422761;1290;107140;-41
2022/10/10 21:16:31;;;;;;;51.50;26.50;;;;;;;9.13;69.12;98878.80;422910;1284;97481;-41
2022/10/10 21:26:40;;;;;;;45.40;23.30;;;;;;;9.11;69.51;98877.67;422920;1292;109423;-39
2022/10/10 21:36:48;;;;;;;44.40;23.40;;;;;;;9.26;69.99;98876.80;422858;1292;108928;-40
2022/10/10 21:46:55;;;;;;;40.50;21.60;;;;;;;9.36;70.30;98878.87;422882;1292;97774;-40
2022/10/10 21:57:02;;;;;;;34.70;20.00;;;;;;;9.43;70.63;98882.21;423288;1292;108298;-41
2022/10/10 22:07:09;;;;;;;35.90;18.90;;;;;;;9.51;70.97;98880.35;422964;1286;97898;-41
2022/10/10 22:17:16;;;;;;;27.30;16.90;;;;;;;9.66;71.33;98880.19;422960;1285;109449;-41
2022/10/10 22:27:23;;;;;;;29.40;15.80;;;;;;;9.82;71.73;98881.26;422743;1284;108388;-41
2022/10/10 22:37:30;;;;;;;29.30;15.70;;;;;;;9.95;71.68;98881.10;423066;1292;98168;-41
2022/10/10 22:47:37;;;;;;;22.40;13.00;;;;;;;10.14;72.07;98882.35;422549;1292;247846;-40
2022/10/10 22:57:44;;;;;;;20.00;11.70;;;;;;;10.34;72.02;98881.41;422887;1292;97883;-41
2022/10/10 23:07:52;;;;;;;24.20;13.10;;;;;;;10.51;72.13;98889.96;422954;1292;109371;-41
2022/10/10 23:18:00;;;;;;;26.70;13.80;;;;;;;10.58;72.17;98899.95;422835;1292;109395;-41
2022/10/10 23:28:06;;;;;;;20.50;12.80;;;;;;;10.62;72.26;98907.95;422765;1285;97506;-41
2022/10/10 23:38:13;;;;;;;18.70;10.20;;;;;;;10.71;72.29;98910.69;422958;1289;109940;-40
2022/10/10 23:48:21;;;;;;;14.70;8.30;;;;;;;10.86;72.34;98914.39;422396;1276;106752;-41
2022/10/10 23:58:28;;;;;;;18.10;9.30;;;;;;;10.98;72.50;98924.73;422895;1285;96690;-40
